Time;durP1;ratioP1;P1;durP2;ratioP2;P2;SDS_P1;SDS_P2;PMS_P1;PMS_P2;Temp;Humidity;BMP_temperature;BMP_pressure;BME280_temperature;BME280_humidity;BME280_pressure;Samples;Min_cycle;Max_cycle;Signal;HPM_P1;HPM_P2
2023/05/04 00:01:35;;;;;;;0.40;0.33;;;;;;;5.66;91.72;101332.66;5023378;28;20222;-75
2023/05/04 00:04:01;;;;;;;0.00;0.00;;;;;;;5.51;92.27;101321.66;5015157;28;20546;-76
2023/05/04 00:06:26;;;;;;;0.03;0.03;;;;;;;5.38;93.02;101325.59;5014878;28;20184;-76
2023/05/04 00:08:51;;;;;;;0.00;0.00;;;;;;;5.24;93.86;101324.34;5015322;28;20189;-76
2023/05/04 00:11:17;;;;;;;0.00;0.00;;;;;;;5.27;95.17;101329.25;5013955;28;20212;-76
2023/05/04 00:13:42;;;;;;;0.00;0.00;;;;;;;5.22;95.64;101319.19;5014013;28;20181;-76
2023/05/04 00:16:07;;;;;;;0.00;0.00;;;;;;;5.16;96.46;101314.78;5012583;28;20670;-76
2023/05/04 00:18:33;;;;;;;0.37;0.37;;;;;;;5.17;97.04;101316.41;5012029;28;20185;-76
2023/05/04 00:20:58;;;;;;;0.00;0.00;;;;;;;5.19;97.66;101318.88;5014006;28;20571;-76
2023/05/04 00:23:23;;;;;;;0.00;0.00;;;;;;;5.11;97.68;101313.91;5013958;28;20176;-76
2023/05/04 00:25:48;;;;;;;0.00;0.00;;;;;;;5.04;98.01;101306.78;5013662;28;20184;-76
2023/05/04 00:28:14;;;;;;;0.00;0.00;;;;;;;4.94;98.39;101309.41;5014082;28;20185;-76
2023/05/04 00:30:39;;;;;;;0.00;0.00;;;;;;;4.84;98.61;101311.16;5013708;28;20184;-76
2023/05/04 00:33:05;;;;;;;0.00;0.00;;;;;;;4.85;99.14;101313.59;5013953;28;20543;-76
2023/05/04 00:35:30;;;;;;;0.00;0.00;;;;;;;4.90;99.86;101307.41;5014438;28;20197;-76
2023/05/04 00:37:56;;;;;;;0.00;0.00;;;;;;;4.90;100.00;101310.94;5013433;28;20184;-76
2023/05/04 00:40:21;;;;;;;0.10;0.10;;;;;;;5.00;100.00;101304.84;5015267;28;20557;-76
2023/05/04 00:42:47;;;;;;;0.17;0.17;;;;;;;4.92;100.00;101305.28;5014631;28;20200;-76
2023/05/04 00:45:13;;;;;;;0.00;0.00;;;;;;;4.85;99.90;101300.06;5013410;28;20185;-76
2023/05/04 00:47:40;;;;;;;0.00;0.00;;;;;;;4.84;99.68;101294.91;5014679;28;20538;-76
2023/05/04 00:50:06;;;;;;;0.00;0.00;;;;;;;4.80;100.00;101289.19;5029304;28;20272;-76
2023/05/04 00:52:32;;;;;;;0.00;0.00;;;;;;;4.89;100.00;101295.78;5013756;28;20754;-76
2023/05/04 00:55:00;;;;;;;0.10;0.10;;;;;;;5.01;100.00;101290.22;5013585;28;20187;-76
2023/05/04 00:57:25;;;;;;;0.00;0.00;;;;;;;5.08;100.00;101293.56;5013920;28;20195;-76
2023/05/04 00:59:52;;;;;;;0.00;0.00;;;;;;;5.12;100.00;101286.56;5013981;28;20184;-76
2023/05/04 01:02:18;;;;;;;0.00;0.00;;;;;;;5.18;100.00;101285.53;5014041;28;20242;-77
2023/05/04 01:04:44;;;;;;;0.00;0.00;;;;;;;5.25;100.00;101285.34;5012237;28;20656;-76
2023/05/04 01:07:25;;;;;;;0.00;0.00;;;;;;;5.23;100.00;101282.91;5012560;28;20268;-76
2023/05/04 01:10:10;;;;;;;0.00;0.00;;;;;;;5.08;99.59;101272.72;5014016;28;20242;-76
2023/05/04 01:12:43;;;;;;;0.00;0.00;;;;;;;5.17;99.58;101280.38;5013648;28;20212;-76
2023/05/04 01:15:10;;;;;;;0.00;0.00;;;;;;;5.20;99.14;101271.75;5013968;28;20176;-76
2023/05/04 01:17:36;;;;;;;0.00;0.00;;;;;;;5.20;98.95;101272.56;5012701;28;20207;-76
2023/05/04 01:20:02;;;;;;;0.00;0.00;;;;;;;5.21;98.75;101271.50;5013551;28;20688;-76
2023/05/04 01:22:28;;;;;;;0.00;0.00;;;;;;;5.15;98.64;101269.81;5013304;28;20287;-76
2023/05/04 01:24:53;;;;;;;0.00;0.00;;;;;;;5.05;98.40;101269.69;5013127;28;20267;-76
2023/05/04 01:27:30;;;;;;;0.00;0.00;;;;;;;4.72;98.74;101266.06;5012718;28;20275;-77
2023/05/04 01:30:04;;;;;;;0.00;0.00;;;;;;;4.52;99.48;101268.53;5011520;28;20176;-76
2023/05/04 01:32:31;;;;;;;0.00;0.00;;;;;;;4.60;100.00;101276.19;5012897;28;20208;-76
2023/05/04 01:34:57;;;;;;;0.00;0.00;;;;;;;4.30;100.00;101267.66;5011956;28;20180;-76
2023/05/04 01:37:22;;;;;;;0.00;0.00;;;;;;;4.53;100.00;101283.69;5012454;28;20215;-76
2023/05/04 01:39:48;;;;;;;0.00;0.00;;;;;;;4.67;100.00;101286.84;5012283;28;20207;-76
2023/05/04 01:42:13;;;;;;;0.00;0.00;;;;;;;4.89;100.00;101284.13;5012282;28;20279;-76
2023/05/04 01:44:39;;;;;;;0.00;0.00;;;;;;;4.99;99.70;101281.53;5011747;28;20475;-76
2023/05/04 01:47:04;;;;;;;0.00;0.00;;;;;;;4.98;98.72;101269.09;5012450;28;20181;-76
2023/05/04 01:49:30;;;;;;;0.00;0.00;;;;;;;5.02;97.79;101281.84;5027769;28;20184;-77
2023/05/04 01:51:55;;;;;;;0.00;0.00;;;;;;;4.98;97.37;101278.03;5012785;28;20251;-76
2023/05/04 01:54:20;;;;;;;0.00;0.00;;;;;;;4.96;97.38;101276.66;5012961;28;20180;-76
2023/05/04 01:56:46;;;;;;;0.00;0.00;;;;;;;4.98;97.20;101277.22;5014725;28;20188;-76
2023/05/04 01:59:11;;;;;;;0.00;0.00;;;;;;;4.86;97.29;101281.94;5014212;28;20229;-76
2023/05/04 02:01:36;;;;;;;0.00;0.00;;;;;;;4.82;97.25;101286.22;5011335;28;20204;-77
2023/05/04 02:04:02;;;;;;;0.00;0.00;;;;;;;4.89;97.94;101284.94;5012659;28;20262;-77
2023/05/04 02:06:27;;;;;;;0.00;0.00;;;;;;;4.91;98.73;101284.69;5012251;28;20187;-76
2023/05/04 02:08:53;;;;;;;0.00;0.00;;;;;;;4.91;98.67;101277.38;5012575;28;20184;-77
2023/05/04 02:11:18;;;;;;;0.00;0.00;;;;;;;4.97;98.27;101284.50;5011586;28;20279;-76
2023/05/04 02:13:43;;;;;;;0.00;0.00;;;;;;;4.91;98.35;101279.28;5013279;28;20275;-76
2023/05/04 02:16:09;;;;;;;0.00;0.00;;;;;;;4.87;98.17;101275.44;5011701;28;20234;-77
2023/05/04 02:18:34;;;;;;;0.00;0.00;;;;;;;4.84;98.19;101281.38;5012551;28;20176;-76
2023/05/04 02:21:00;;;;;;;0.00;0.00;;;;;;;4.69;97.78;101279.28;5012486;28;20276;-76
2023/05/04 02:23:25;;;;;;;0.40;0.40;;;;;;;4.63;98.31;101280.28;5010551;28;20193;-76
2023/05/04 02:25:51;;;;;;;0.00;0.00;;;;;;;4.61;98.43;101277.00;5011482;28;20187;-76
2023/05/04 02:28:16;;;;;;;0.00;0.00;;;;;;;4.59;99.08;101279.16;5013273;28;20230;-76
2023/05/04 02:30:42;;;;;;;0.00;0.00;;;;;;;4.62;100.00;101282.16;5013422;28;20192;-76
2023/05/04 02:33:07;;;;;;;0.00;0.00;;;;;;;4.67;100.00;101281.44;5012711;28;20184;-76
2023/05/04 02:35:32;;;;;;;0.27;0.27;;;;;;;4.13;100.00;101268.53;5011347;28;20221;-76
2023/05/04 02:37:59;;;;;;;0.00;0.00;;;;;;;4.23;100.00;101281.38;5011860;28;20188;-76
2023/05/04 02:40:24;;;;;;;0.00;0.00;;;;;;;4.04;100.00;101275.41;5011349;28;20184;-76
2023/05/04 02:42:50;;;;;;;0.00;0.00;;;;;;;4.02;100.00;101279.44;5026900;28;20584;-77
2023/05/04 02:45:15;;;;;;;0.00;0.00;;;;;;;3.88;100.00;101276.25;5011698;28;20659;-77
2023/05/04 02:47:40;;;;;;;0.00;0.00;;;;;;;4.02;100.00;101274.84;5011825;28;20271;-77
2023/05/04 02:50:06;;;;;;;0.00;0.00;;;;;;;3.92;100.00;101274.72;5011923;28;20184;-76
2023/05/04 02:52:32;;;;;;;0.00;0.00;;;;;;;3.88;100.00;101281.66;5011753;28;20219;-77
2023/05/04 02:54:58;;;;;;;0.10;0.10;;;;;;;3.94;100.00;101274.47;5011407;28;20259;-76
2023/05/04 02:57:23;;;;;;;0.00;0.00;;;;;;;3.69;100.00;101278.38;5010680;28;20196;-76
2023/05/04 02:59:50;;;;;;;0.00;0.00;;;;;;;3.69;100.00;101280.25;5011424;28;20188;-77
2023/05/04 03:02:15;;;;;;;1.43;1.43;;;;;;;3.45;100.00;101269.59;5010970;28;20201;-77
2023/05/04 03:04:40;;;;;;;0.10;0.10;;;;;;;3.11;100.00;101267.88;5013193;28;20180;-76
2023/05/04 03:07:07;;;;;;;0.27;0.23;;;;;;;3.32;100.00;101277.16;5012055;28;20188;-76
2023/05/04 03:09:32;;;;;;;0.00;0.00;;;;;;;3.32;100.00;101267.19;5010734;28;20271;-76
2023/05/04 03:11:57;;;;;;;0.00;0.00;;;;;;;3.38;100.00;101260.00;5011541;28;20637;-76
2023/05/04 03:14:23;;;;;;;0.00;0.00;;;;;;;3.33;100.00;101260.75;5011436;28;20184;-76
2023/05/04 03:16:48;;;;;;;0.90;0.90;;;;;;;3.27;100.00;101259.81;5013093;28;20188;-76
2023/05/04 03:19:13;;;;;;;0.00;0.00;;;;;;;3.20;100.00;101264.56;5012886;28;20243;-77
2023/05/04 03:21:38;;;;;;;0.00;0.00;;;;;;;3.08;100.00;101253.00;5012833;28;20205;-76
2023/05/04 03:24:04;;;;;;;0.00;0.00;;;;;;;3.27;100.00;101262.53;5012329;28;20224;-76
2023/05/04 03:26:29;;;;;;;0.00;0.00;;;;;;;3.25;100.00;101256.56;5011602;28;20204;-76
2023/05/04 03:28:54;;;;;;;0.00;0.00;;;;;;;3.08;100.00;101255.69;5012544;28;20195;-77
2023/05/04 03:31:20;;;;;;;0.00;0.00;;;;;;;3.26;100.00;101260.06;5010575;28;20246;-76
2023/05/04 03:33:45;;;;;;;5.23;4.73;;;;;;;3.39;100.00;101258.94;5010844;28;20615;-76
2023/05/04 03:36:11;;;;;;;0.00;0.00;;;;;;;3.58;100.00;101260.34;5012289;28;20267;-77
2023/05/04 03:38:36;;;;;;;0.00;0.00;;;;;;;3.72;100.00;101260.84;5013282;28;20259;-76
2023/05/04 03:41:01;;;;;;;0.23;0.23;;;;;;;3.78;100.00;101266.09;5012365;28;20311;-76
2023/05/04 03:43:26;;;;;;;0.00;0.00;;;;;;;3.92;100.00;101258.50;5011806;28;20184;-76
2023/05/04 03:45:52;;;;;;;2.33;2.30;;;;;;;4.03;100.00;101254.84;5013182;28;20177;-76
2023/05/04 03:48:17;;;;;;;0.00;0.00;;;;;;;4.01;100.00;101256.16;5013131;28;20184;-76
2023/05/04 03:50:42;;;;;;;0.00;0.00;;;;;;;4.04;100.00;101250.25;5009833;28;20181;-76
2023/05/04 03:53:08;;;;;;;0.00;0.00;;;;;;;4.02;100.00;101250.50;5013728;28;20390;-76
2023/05/04 03:55:33;;;;;;;0.00;0.00;;;;;;;4.09;100.00;101256.56;5013757;28;20192;-76
2023/05/04 03:57:58;;;;;;;0.00;0.00;;;;;;;3.92;100.00;101247.69;5013045;28;20184;-76
2023/05/04 04:00:23;;;;;;;0.00;0.00;;;;;;;3.89;100.00;101243.56;5014050;28;20208;-76
2023/05/04 04:02:49;;;;;;;0.00;0.00;;;;;;;3.81;100.00;101249.38;5012668;28;20204;-76
2023/05/04 04:05:14;;;;;;;0.00;0.00;;;;;;;3.81;100.00;101248.56;5013620;28;20180;-76
2023/05/04 04:07:40;;;;;;;0.00;0.00;;;;;;;3.89;100.00;101245.44;5014075;28;20227;-76
2023/05/04 04:10:06;;;;;;;0.00;0.00;;;;;;;3.98;100.00;101246.66;5012672;28;20185;-76
2023/05/04 04:12:31;;;;;;;0.00;0.00;;;;;;;4.01;100.00;101251.56;5029058;28;20713;-76
2023/05/04 04:14:57;;;;;;;0.00;0.00;;;;;;;4.07;100.00;101249.78;5013512;28;20185;-76
2023/05/04 04:17:22;;;;;;;0.00;0.00;;;;;;;4.08;100.00;101246.81;5013565;28;20181;-76
2023/05/04 04:19:48;;;;;;;0.00;0.00;;;;;;;3.97;100.00;101247.75;5014163;28;20180;-76
2023/05/04 04:22:13;;;;;;;0.00;0.00;;;;;;;4.04;100.00;101245.66;5014291;28;20686;-76
2023/05/04 04:24:38;;;;;;;0.00;0.00;;;;;;;3.95;100.00;101246.34;5014385;28;20234;-76
2023/05/04 04:27:04;;;;;;;0.00;0.00;;;;;;;3.99;100.00;101242.91;5029776;28;20234;-76
2023/05/04 04:29:29;;;;;;;0.00;0.00;;;;;;;3.93;100.00;101246.59;5013904;28;20188;-75
2023/05/04 04:31:54;;;;;;;0.00;0.00;;;;;;;4.09;100.00;101239.53;5013440;28;20211;-76
2023/05/04 04:34:21;;;;;;;5.80;5.40;;;;;;;4.08;100.00;101233.31;5012849;28;20200;-76
2023/05/04 04:36:46;;;;;;;0.00;0.00;;;;;;;4.00;100.00;101241.81;5013633;28;20722;-76
2023/05/04 04:39:11;;;;;;;0.00;0.00;;;;;;;4.00;100.00;101239.13;5013375;28;20173;-76
2023/05/04 04:41:37;;;;;;;0.00;0.00;;;;;;;4.13;100.00;101236.06;5013365;28;20806;-77
2023/05/04 04:44:03;;;;;;;0.00;0.00;;;;;;;4.15;100.00;101238.53;5013324;28;20582;-76
2023/05/04 04:46:29;;;;;;;0.00;0.00;;;;;;;4.24;100.00;101241.63;5012886;28;20186;-76
2023/05/04 04:48:54;;;;;;;0.00;0.00;;;;;;;4.37;100.00;101235.88;5013103;28;20584;-76
2023/05/04 04:51:20;;;;;;;0.20;0.20;;;;;;;4.48;100.00;101235.75;5011697;28;20208;-76
2023/05/04 04:53:45;;;;;;;0.00;0.00;;;;;;;4.61;100.00;101239.94;5013097;28;20246;-76
2023/05/04 04:56:10;;;;;;;0.00;0.00;;;;;;;4.73;100.00;101229.81;5012573;28;20620;-76
2023/05/04 04:58:36;;;;;;;0.00;0.00;;;;;;;4.82;100.00;101238.31;5011622;28;20280;-76
2023/05/04 05:01:04;;;;;;;0.00;0.00;;;;;;;4.94;100.00;101239.00;5013831;28;20196;-76
2023/05/04 05:03:30;;;;;;;0.00;0.00;;;;;;;5.06;100.00;101238.81;5013138;28;20191;-76
2023/05/04 05:05:55;;;;;;;0.10;0.10;;;;;;;5.19;100.00;101235.72;5013518;28;20200;-76
2023/05/04 05:08:24;;;;;;;0.10;0.10;;;;;;;5.30;100.00;101234.75;5012319;28;20215;-76
2023/05/04 05:10:49;;;;;;;0.00;0.00;;;;;;;5.41;100.00;101237.56;5011372;28;20232;-77
2023/05/04 05:13:15;;;;;;;0.00;0.00;;;;;;;5.55;100.00;101234.16;5013141;28;20212;-76
2023/05/04 05:15:40;;;;;;;0.00;0.00;;;;;;;5.57;100.00;101237.41;5012366;28;20191;-77
2023/05/04 05:18:05;;;;;;;0.00;0.00;;;;;;;5.65;100.00;101230.72;5012689;28;20172;-76
2023/05/04 05:20:31;;;;;;;0.00;0.00;;;;;;;5.70;100.00;101233.47;5012330;28;20188;-76
2023/05/04 05:22:56;;;;;;;0.00;0.00;;;;;;;5.68;100.00;101225.59;5011375;28;20718;-76
2023/05/04 05:25:21;;;;;;;0.00;0.00;;;;;;;5.79;100.00;101228.38;5012093;28;20181;-76
2023/05/04 05:27:46;;;;;;;0.00;0.00;;;;;;;5.85;100.00;101238.19;5014418;28;20187;-76
2023/05/04 05:30:12;;;;;;;0.00;0.00;;;;;;;5.89;100.00;101237.38;5012520;28;20673;-77
2023/05/04 05:32:38;;;;;;;0.00;0.00;;;;;;;5.94;100.00;101226.63;5027491;28;20209;-77
2023/05/04 05:35:04;;;;;;;0.00;0.00;;;;;;;5.94;100.00;101228.53;5012158;28;20176;-77
2023/05/04 05:37:31;;;;;;;0.00;0.00;;;;;;;6.04;100.00;101227.75;5028323;28;20181;-76
2023/05/04 05:39:56;;;;;;;0.00;0.00;;;;;;;6.04;99.91;101225.03;5012819;28;20690;-77
2023/05/04 05:42:21;;;;;;;0.00;0.00;;;;;;;6.11;100.00;101223.75;5012111;28;20200;-79
2023/05/04 05:44:47;;;;;;;0.30;0.30;;;;;;;6.20;99.99;101230.28;5011881;28;20571;-77
2023/05/04 05:47:12;;;;;;;0.10;0.10;;;;;;;6.30;99.49;101226.81;5012016;28;20204;-77
2023/05/04 05:49:37;;;;;;;0.00;0.00;;;;;;;6.35;99.00;101226.84;5012213;28;20246;-76
2023/05/04 05:52:03;;;;;;;0.00;0.00;;;;;;;6.45;98.25;101232.31;5012813;28;20208;-77
2023/05/04 05:54:30;;;;;;;0.93;0.37;;;;;;;6.45;97.46;101235.03;5026703;28;20185;-77
2023/05/04 05:56:55;;;;;;;0.00;0.00;;;;;;;6.64;97.68;101237.28;5012155;28;20697;-77
2023/05/04 05:59:20;;;;;;;0.00;0.00;;;;;;;6.72;97.91;101232.16;5011848;28;20185;-77
2023/05/04 06:01:46;;;;;;;0.00;0.00;;;;;;;6.80;96.74;101228.94;5010481;28;20254;-77
2023/05/04 06:04:11;;;;;;;0.00;0.00;;;;;;;6.91;95.50;101232.50;5011802;28;20185;-77
2023/05/04 06:06:37;;;;;;;0.00;0.00;;;;;;;7.10;94.58;101235.56;5012210;28;20188;-80
2023/05/04 06:09:02;;;;;;;0.20;0.20;;;;;;;7.14;92.60;101229.28;5013785;28;20184;-76
2023/05/04 06:11:27;;;;;;;0.00;0.00;;;;;;;7.27;91.73;101227.97;5004709;28;20219;-76
2023/05/04 06:13:53;;;;;;;0.00;0.00;;;;;;;7.28;91.57;101229.59;5011456;28;20227;-76
2023/05/04 06:16:18;;;;;;;0.60;0.60;;;;;;;7.22;90.85;101218.97;5008928;28;20184;-76
2023/05/04 06:18:45;;;;;;;1.13;0.80;;;;;;;7.32;90.31;101224.44;5006700;28;20679;-76
2023/05/04 06:21:10;;;;;;;0.00;0.00;;;;;;;7.43;90.30;101226.88;5007170;28;20307;-76
2023/05/04 06:23:36;;;;;;;1.07;1.07;;;;;;;7.37;89.28;101216.25;5011402;28;20181;-76
2023/05/04 06:26:03;;;;;;;0.20;0.20;;;;;;;7.60;88.79;101223.09;5026338;28;20189;-75
2023/05/04 06:28:29;;;;;;;0.00;0.00;;;;;;;7.69;88.69;101225.00;5011405;28;20655;-75
2023/05/04 06:30:54;;;;;;;0.40;0.40;;;;;;;7.62;87.67;101213.56;5011256;28;20283;-76
2023/05/04 06:33:19;;;;;;;1.40;1.30;;;;;;;7.68;88.10;101225.28;5009671;28;20192;-76
2023/05/04 06:35:45;;;;;;;4.03;2.53;;;;;;;7.73;88.24;101228.78;5011116;28;20211;-76
2023/05/04 06:38:10;;;;;;;0.40;0.40;;;;;;;7.80;88.07;101233.94;5011353;28;20192;-76
2023/05/04 06:40:35;;;;;;;0.30;0.30;;;;;;;7.79;89.03;101234.22;5011447;28;20254;-76
2023/05/04 06:43:01;;;;;;;0.03;0.03;;;;;;;7.95;90.00;101244.00;5011598;28;20647;-76
2023/05/04 06:45:26;;;;;;;0.00;0.00;;;;;;;8.08;88.51;101235.25;5009561;28;20188;-76
2023/05/04 06:47:51;;;;;;;0.40;0.40;;;;;;;8.06;86.66;101226.56;5011363;28;20251;-76
2023/05/04 06:50:17;;;;;;;0.13;0.13;;;;;;;8.18;86.25;101226.28;5011113;28;20203;-76
2023/05/04 06:52:43;;;;;;;0.07;0.07;;;;;;;8.28;85.62;101240.69;5011125;28;20212;-76
2023/05/04 06:55:09;;;;;;;1.17;1.17;;;;;;;8.46;86.10;101233.03;5011164;28;20259;-76
2023/05/04 06:57:34;;;;;;;1.20;1.07;;;;;;;8.53;85.64;101236.25;5026552;28;20211;-76
2023/05/04 07:00:00;;;;;;;0.00;0.00;;;;;;;8.57;86.08;101235.44;5029486;28;20192;-75
2023/05/04 07:02:25;;;;;;;0.00;0.00;;;;;;;8.79;86.63;101247.88;5015021;28;20246;-76
2023/05/04 07:04:51;;;;;;;1.17;1.07;;;;;;;8.88;86.48;101251.66;5010831;28;20184;-76
2023/05/04 07:07:17;;;;;;;0.80;0.80;;;;;;;8.83;86.28;101244.31;5011026;28;20214;-76
2023/05/04 07:09:43;;;;;;;0.00;0.00;;;;;;;8.85;86.39;101244.84;5007348;28;20654;-76
2023/05/04 07:12:08;;;;;;;0.00;0.00;;;;;;;9.01;86.16;101252.97;5010756;28;20295;-76
2023/05/04 07:14:33;;;;;;;0.27;0.27;;;;;;;9.15;86.51;101251.25;5010684;28;20192;-76
2023/05/04 07:16:59;;;;;;;0.80;0.80;;;;;;;9.23;86.55;101254.16;5010977;28;20184;-76
2023/05/04 07:19:25;;;;;;;1.10;1.07;;;;;;;9.32;85.35;101250.84;5010666;28;20263;-76
2023/05/04 07:21:50;;;;;;;0.00;0.00;;;;;;;9.26;84.31;101252.81;5009674;28;20287;-76
2023/05/04 07:24:16;;;;;;;0.13;0.13;;;;;;;9.43;84.19;101241.50;5010332;28;20184;-75
2023/05/04 07:26:41;;;;;;;0.43;0.43;;;;;;;9.44;84.25;101233.03;5011531;28;20235;-76
2023/05/04 07:29:06;;;;;;;0.33;0.33;;;;;;;9.63;84.22;101246.81;5015316;28;20631;-76
2023/05/04 07:31:32;;;;;;;0.00;0.00;;;;;;;9.80;83.92;101239.00;5013301;28;20211;-76
2023/05/04 07:33:57;;;;;;;0.40;0.40;;;;;;;9.92;82.14;101230.44;5010417;28;20196;-76
2023/05/04 07:36:25;;;;;;;0.90;0.70;;;;;;;10.07;81.96;101233.03;5014132;28;20275;-77
2023/05/04 07:38:50;;;;;;;1.07;1.03;;;;;;;10.11;81.34;101234.06;5014562;28;20195;-76
2023/05/04 07:41:16;;;;;;;1.47;0.63;;;;;;;10.16;81.74;101226.94;5014662;28;20200;-76
2023/05/04 07:43:41;;;;;;;2.33;1.93;;;;;;;10.15;81.19;101228.88;5016960;28;20180;-78
2023/05/04 07:46:06;;;;;;;0.37;0.37;;;;;;;10.10;81.38;101234.34;5018835;28;20181;-77
2023/05/04 07:48:33;;;;;;;0.63;0.63;;;;;;;10.17;81.14;101223.09;5016338;28;20561;-79
2023/05/04 07:50:58;;;;;;;0.37;0.37;;;;;;;10.38;82.16;101227.25;5017150;28;20211;-79
2023/05/04 07:53:25;;;;;;;0.67;0.67;;;;;;;10.36;81.71;101226.75;5016012;28;20196;-77
2023/05/04 07:55:50;;;;;;;1.17;1.10;;;;;;;10.34;81.96;101226.22;5001079;28;20211;-77
2023/05/04 07:58:16;;;;;;;0.00;0.00;;;;;;;10.55;82.55;101227.59;5015079;28;20181;-77
2023/05/04 08:00:51;;;;;;;0.80;0.80;;;;;;;10.55;81.78;101221.31;5015194;28;20184;-77
2023/05/04 08:03:17;;;;;;;0.00;0.00;;;;;;;10.54;81.60;101219.69;5015212;28;20588;-77
2023/05/04 08:05:42;;;;;;;0.47;0.47;;;;;;;10.67;81.07;101217.06;5015775;28;20223;-80
2023/05/04 08:08:08;;;;;;;0.07;0.07;;;;;;;10.91;82.06;101232.63;5015379;28;20557;-81
2023/05/04 08:10:37;;;;;;;0.77;0.77;;;;;;;10.92;79.79;101212.38;5032537;28;20190;-81
2023/05/04 08:13:03;;;;;;;0.83;0.33;;;;;;;10.91;78.78;101211.56;5016087;28;20218;-81
2023/05/04 08:15:29;;;;;;;0.00;0.00;;;;;;;10.93;78.05;101208.53;5008413;28;20234;-80
2023/05/04 08:17:54;;;;;;;0.00;0.00;;;;;;;11.17;78.99;101213.94;5016565;28;20188;-80
2023/05/04 08:20:20;;;;;;;0.53;0.53;;;;;;;11.36;79.37;101222.94;5021549;28;20706;-78
2023/05/04 08:22:45;;;;;;;0.00;0.00;;;;;;;11.40;77.91;101213.00;5021237;28;20201;-79
2023/05/04 08:25:12;;;;;;;0.00;0.00;;;;;;;11.56;76.98;101208.91;5019227;28;20187;-79
2023/05/04 08:27:38;;;;;;;0.03;0.03;;;;;;;11.69;76.08;101201.88;5030420;28;20216;-77
2023/05/04 08:30:03;;;;;;;1.87;0.77;;;;;;;11.67;75.75;101201.34;5028893;28;20262;-77
2023/05/04 08:32:29;;;;;;;0.30;0.30;;;;;;;11.65;76.00;101192.63;5012763;28;20643;-77
2023/05/04 08:34:54;;;;;;;0.27;0.27;;;;;;;11.88;75.18;101197.19;5013226;28;20673;-77
2023/05/04 08:37:20;;;;;;;0.43;0.43;;;;;;;11.91;74.44;101191.09;5013435;28;20216;-77
2023/05/04 08:39:45;;;;;;;0.00;0.00;;;;;;;11.86;74.11;101185.72;5011492;28;20613;-77
2023/05/04 08:42:10;;;;;;;0.33;0.33;;;;;;;11.82;72.59;101176.47;5013182;28;20200;-76
2023/05/04 08:44:36;;;;;;;0.00;0.00;;;;;;;11.98;73.28;101184.41;5012879;28;20560;-77
2023/05/04 08:47:03;;;;;;;0.40;0.40;;;;;;;11.98;72.48;101167.97;5013285;28;20306;-77
2023/05/04 08:49:29;;;;;;;0.83;0.83;;;;;;;12.21;72.69;101173.28;5013404;28;20181;-76
2023/05/04 08:51:55;;;;;;;0.37;0.33;;;;;;;12.33;71.67;101163.75;5013227;28;20219;-77
2023/05/04 08:54:21;;;;;;;1.47;1.37;;;;;;;12.44;71.52;101159.66;5012756;28;20185;-77
2023/05/04 08:56:46;;;;;;;0.57;0.53;;;;;;;12.42;72.08;101159.16;5013193;28;20319;-76
2023/05/04 08:59:20;;;;;;;1.70;0.87;;;;;;;12.55;71.42;101152.84;5013133;28;20188;-76
2023/05/04 09:01:56;;;;;;;5.57;1.90;;;;;;;12.42;70.79;101148.19;5012958;28;20693;-76
2023/05/04 09:04:21;;;;;;;0.10;0.10;;;;;;;12.61;69.63;101140.66;5012569;28;20176;-76
2023/05/04 09:06:47;;;;;;;0.20;0.20;;;;;;;12.90;69.08;101139.47;5013216;28;20195;-77
2023/05/04 09:09:13;;;;;;;0.67;0.67;;;;;;;12.88;68.12;101123.34;5012945;28;20181;-78
2023/05/04 09:11:39;;;;;;;4.53;2.10;;;;;;;12.97;67.40;101115.97;5013238;28;20220;-77
2023/05/04 09:14:04;;;;;;;0.67;0.67;;;;;;;13.18;66.42;101119.06;5012727;28;20176;-77
2023/05/04 09:16:36;;;;;;;2.20;0.73;;;;;;;12.88;64.42;101092.34;5004335;28;20239;-76
2023/05/04 09:19:03;;;;;;;2.30;1.00;;;;;;;13.18;65.00;101099.03;5012763;28;20201;-77
2023/05/04 09:21:32;;;;;;;1.53;1.43;;;;;;;13.07;63.75;101101.19;5012622;28;20227;-77
2023/05/04 09:23:58;;;;;;;0.10;0.10;;;;;;;13.16;64.31;101104.78;5012787;28;20184;-77
2023/05/04 09:26:30;;;;;;;0.13;0.03;;;;;;;13.42;65.47;101113.22;5012209;28;20238;-77
2023/05/04 09:28:56;;;;;;;1.60;1.43;;;;;;;13.27;62.76;101086.19;5012360;28;20184;-77
2023/05/04 09:31:22;;;;;;;2.67;1.10;;;;;;;13.58;63.01;101089.75;5012272;28;20704;-77
2023/05/04 09:33:48;;;;;;;0.10;0.10;;;;;;;13.83;63.92;101095.69;5012267;28;20188;-77
2023/05/04 09:36:15;;;;;;;1.27;1.17;;;;;;;13.69;61.89;101073.81;5011848;28;20180;-77
2023/05/04 09:38:40;;;;;;;0.20;0.20;;;;;;;13.92;62.89;101089.09;5012138;28;20185;-77
2023/05/04 09:41:05;;;;;;;2.00;0.23;;;;;;;13.93;61.74;101071.47;5012124;28;20686;-76
2023/05/04 09:43:42;;;;;;;0.10;0.10;;;;;;;13.86;61.32;101076.63;5011862;28;20184;-76
2023/05/04 09:46:17;;;;;;;0.50;0.50;;;;;;;14.15;61.49;101078.81;5011846;28;20184;-76
2023/05/04 09:48:54;;;;;;;0.37;0.33;;;;;;;14.24;60.67;101074.16;5007676;28;20595;-76
2023/05/04 09:51:22;;;;;;;0.40;0.40;;;;;;;14.05;59.14;101065.38;4992079;28;20229;-77
2023/05/04 09:53:49;;;;;;;1.30;0.87;;;;;;;14.20;59.33;101067.69;5010647;28;20192;-76
2023/05/04 09:56:29;;;;;;;1.23;1.13;;;;;;;14.04;58.18;101051.97;5011569;28;20250;-77
2023/05/04 09:58:58;;;;;;;2.87;2.67;;;;;;;14.24;59.21;101063.16;5012207;28;20538;-77
2023/05/04 10:01:28;;;;;;;0.17;0.17;;;;;;;14.53;59.29;101057.06;5012008;28;20208;-77
2023/05/04 10:03:54;;;;;;;0.00;0.00;;;;;;;14.49;59.14;101058.03;5012002;28;20265;-77
2023/05/04 10:06:20;;;;;;;0.10;0.10;;;;;;;14.93;60.81;101072.59;5011408;28;20187;-78
2023/05/04 10:08:48;;;;;;;0.20;0.20;;;;;;;14.95;58.95;101056.56;5012339;28;20222;-77
2023/05/04 10:11:17;;;;;;;0.40;0.40;;;;;;;14.87;57.59;101042.47;4995711;28;20208;-77
2023/05/04 10:13:42;;;;;;;1.13;0.90;;;;;;;14.85;56.82;101036.50;5011873;28;20564;-77
2023/05/04 10:16:30;;;;;;;2.83;1.20;;;;;;;14.55;57.11;101034.75;4996491;28;20181;-76
2023/05/04 10:19:17;;;;;;;0.37;0.37;;;;;;;14.92;58.13;101049.78;4992206;28;20654;-76
2023/05/04 10:22:19;;;;;;;0.20;0.20;;;;;;;15.25;57.53;101038.22;5004487;28;20205;-77
2023/05/04 10:24:47;;;;;;;0.00;0.00;;;;;;;15.47;59.00;101048.97;4959980;28;20200;-77
2023/05/04 10:27:31;;;;;;;0.10;0.10;;;;;;;15.44;58.04;101030.38;5012606;28;20187;-77
2023/05/04 10:30:00;;;;;;;4.73;0.73;;;;;;;15.79;57.43;101031.06;5011070;28;20187;-77
2023/05/04 10:32:26;;;;;;;1.30;1.30;;;;;;;16.08;55.96;101015.66;5012059;28;20243;-77
2023/05/04 10:35:02;;;;;;;0.00;0.00;;;;;;;16.21;55.00;101015.41;5012220;28;20188;-77
2023/05/04 10:37:30;;;;;;;0.23;0.23;;;;;;;16.02;55.22;101009.53;5013140;28;20306;-77
2023/05/04 10:39:55;;;;;;;1.60;0.83;;;;;;;15.45;54.05;100994.25;5013855;28;20658;-77
2023/05/04 10:42:21;;;;;;;0.00;0.00;;;;;;;15.43;55.10;101003.97;5013069;28;20220;-77
2023/05/04 10:44:56;;;;;;;0.60;0.60;;;;;;;15.59;55.72;101001.47;5012015;28;20655;-77
2023/05/04 10:47:33;;;;;;;0.00;0.00;;;;;;;15.59;55.72;101002.31;5011788;28;20176;-77
2023/05/04 10:50:08;;;;;;;0.20;0.20;;;;;;;15.81;55.51;100986.66;5027208;28;20662;-77
2023/05/04 10:52:54;;;;;;;0.50;0.50;;;;;;;16.17;55.89;100999.84;5011741;28;20234;-77
2023/05/04 10:55:20;;;;;;;0.00;0.00;;;;;;;16.43;53.52;100992.19;5010791;28;20200;-77
2023/05/04 10:57:50;;;;;;;0.83;0.83;;;;;;;16.59;52.73;100978.59;5011642;28;20714;-77
2023/05/04 11:00:17;;;;;;;0.60;0.57;;;;;;;16.26;53.27;100967.53;5011377;28;20179;-77
2023/05/04 11:02:42;;;;;;;0.00;0.00;;;;;;;16.31;53.48;100972.81;5011512;28;20207;-77
2023/05/04 11:05:08;;;;;;;0.47;0.40;;;;;;;15.91;51.94;100951.25;5010369;28;20560;-77
2023/05/04 11:07:36;;;;;;;0.20;0.20;;;;;;;15.83;52.74;100963.13;5012810;28;20180;-77
2023/05/04 11:10:03;;;;;;;0.00;0.00;;;;;;;15.92;52.84;100958.38;5010741;28;20184;-77
2023/05/04 11:12:29;;;;;;;0.43;0.43;;;;;;;16.04;52.15;100950.16;5014152;28;20204;-76
2023/05/04 11:15:08;;;;;;;0.03;0.03;;;;;;;16.20;51.60;100938.53;5012955;28;20176;-77
2023/05/04 11:17:47;;;;;;;0.00;0.00;;;;;;;16.49;52.03;100951.41;5013187;28;20199;-77
2023/05/04 11:20:22;;;;;;;0.10;0.10;;;;;;;16.41;51.78;100946.78;5011189;28;20231;-76
2023/05/04 11:22:48;;;;;;;0.00;0.00;;;;;;;16.54;52.26;100948.47;5026519;28;20254;-77
2023/05/04 11:25:15;;;;;;;0.43;0.43;;;;;;;16.41;51.55;100939.34;5009682;28;20498;-77